• Join FlightAware (Why Join?)
  • Login
  • US Flag 
11:09PM EDT


 

Airport Tracker/Info


-or-


 

Live Flight TrackerFlight Track Log ✈ AWE782 ✈ 23-Feb-2014 ✈ KLAX - KPHL

Flight Track Log - Related Links

Times and Time Zones

All times are in EST time to prevent confusion due to time zone crossing. See the AWE782 flight status page for this flight to view local times or setup timezone preferences in your user account.

Time Position Orientation Groundspeed Altitude Reporting Facility
EST Latitude Longitude Course Direction KTS MPH feet Rate Location/Type
01:32AM 33.9500 -118.4667 68° East 175 201 1,700  Level Southern California TRACON
01:33AM 33.9167 -118.4833 203° Southwest 205 236 2,100 840 Climbing Southern California TRACON
01:34AM 34.1064 -117.9313 67° East  Level Estimated
01:34AM 33.8361 -118.5044 192° South 249 287 3,500  Level Los Angeles Center
01:35AM 34.1607 -117.7720 68° East  Level Estimated
01:35AM 33.7636 -118.5136 186° South 265 305 5,600  Level Los Angeles Center
01:36AM 34.2147 -117.6124 68° East  Level Estimated
01:36AM 33.6939 -118.5008 171° South 274 315 7,400  Level Los Angeles Center
01:37AM 34.2685 -117.4527 68° East  Level Estimated
01:37AM 33.6600 -118.3986 112° Southeast 279 321 9,500  Level Los Angeles Center
01:38AM 33.6436 -118.3056 102° East 292 336 10,700 840 Climbing Los Angeles Center
01:39AM 33.6447 -118.1978 89° East 316 364 11,300 660 Climbing Los Angeles Center
01:40AM 33.6447 -118.0739 90° East 363 418 12,100 1,020 Climbing Los Angeles Center
01:41AM 33.6447 -117.9425 90° East 388 447 13,400 1,260 Climbing Los Angeles Center
01:42AM 33.6444 -117.8064 90° East 403 464 14,700 1,500 Climbing Los Angeles Center
01:43AM 33.6433 -117.6681 91° East 412 474 16,500 1,440 Climbing Los Angeles Center
01:44AM 33.6436 -117.5292 90° East 416 479 17,700 1,140 Climbing Los Angeles Center
01:45AM 33.6425 -117.3586 90° East 423 487 18,900 1,080 Climbing Los Angeles Center
01:46AM 33.6403 -117.2142 91° East 432 497 20,000 960 Climbing Los Angeles Center
01:47AM 33.6375 -117.0669 91° East 439 505 20,900 900 Climbing Los Angeles Center
01:48AM 33.6372 -116.9164 90° East 449 517 21,900 780 Climbing Los Angeles Center
01:49AM 33.6353 -116.7556 91° East 460 529 22,600 660 Climbing Los Angeles Center
01:50AM 33.6569 -116.6036 80° East 467 537 23,300 660 Climbing Los Angeles Center
01:51AM 33.7100 -116.4608 66° East 469 540 24,000 600 Climbing Los Angeles Center
01:52AM 33.7647 -116.3147 66° East 475 547 24,600 540 Climbing Los Angeles Center
01:53AM 33.8197 -116.1672 66° East 482 555 25,200 540 Climbing Los Angeles Center
01:54AM 33.8761 -116.0192 65° Northeast 486 559 25,800 600 Climbing Los Angeles Center
01:55AM 33.9317 -115.8664 66° East 492 566 26,500 600 Climbing Los Angeles Center
01:56AM 33.9872 -115.7153 66° East 496 571 27,100 600 Climbing Los Angeles Center
01:57AM 34.0436 -115.5631 66° East 496 571 27,800 660 Climbing Los Angeles Center
01:58AM 34.0983 -115.4108 66° East 496 571 28,500 660 Climbing Los Angeles Center
01:59AM 34.1550 -115.2608 65° Northeast 494 568 29,200 600 Climbing Los Angeles Center
02:00AM 34.2108 -115.1097 66° East 492 566 29,800 540 Climbing Los Angeles Center
02:01AM 34.2650 -114.9581 67° East 492 566 30,300 540 Climbing Los Angeles Center
02:02AM 34.3200 -114.8067 66° East 493 567 30,900 300 Climbing Los Angeles Center
02:03AM 34.3744 -114.6550 66° East 492 566 31,000  Climbing Los Angeles Center
02:04AM 34.4281 -114.5031 67° East 492 566 31,000  Level Los Angeles Center
02:05AM 34.4817 -114.3508 67° East 492 566 31,000  Level Los Angeles Center
02:06AM 34.5361 -114.2000 66° East 489 563 31,000  Level Los Angeles Center
02:07AM 34.6017 -114.0097 67° East 491 565 31,000  Level Albuquerque Center
02:08AM 34.6561 -113.8561 67° East 492 566 31,000  Level Albuquerque Center
02:09AM 34.7100 -113.7047 67° East 497 572 31,000  Level Albuquerque Center
02:10AM 34.7628 -113.5525 67° East 494 568 31,000  Level Albuquerque Center
02:11AM 34.8156 -113.3981 67° East 495 570 31,000  Level Albuquerque Center
02:12AM 34.8667 -113.2428 68° East 499 574 31,000  Level Albuquerque Center
02:14AM 34.9200 -113.0894 67° East 497 572 31,000  Level Albuquerque Center
02:15AM 34.9711 -112.9369 68° East 494 568 31,000  Level Albuquerque Center
02:16AM 35.0231 -112.7844 67° East 495 570 31,000  Level Albuquerque Center
02:17AM 35.0742 -112.6306 68° East 496 571 31,000  Level Albuquerque Center
02:18AM 35.1250 -112.4772 68° East 495 570 31,000  Level Albuquerque Center
02:19AM 35.1756 -112.3239 68° East 494 568 31,000  Level Albuquerque Center
02:20AM 35.2372 -112.1383 68° East 495 570 31,000  Level Albuquerque Center
02:21AM 35.2869 -111.9844 68° East 492 566 31,000  Level Albuquerque Center
02:22AM 35.3386 -111.8303 68° East 492 566 31,000  Level Albuquerque Center
02:23AM 35.3892 -111.6753 68° East 492 566 31,000  Level Albuquerque Center
02:24AM 35.4389 -111.5206 68° East 492 566 31,000  Level Albuquerque Center
02:25AM 35.4872 -111.3689 69° East 492 566 31,000  Level Albuquerque Center
02:26AM 35.5428 -111.1953 68° East 490 564 31,000  Level Albuquerque Center
02:27AM 35.5894 -111.0472 69° East 487 560 31,000  Level Albuquerque Center
02:28AM 35.6361 -110.8992 69° East 487 560 31,000  Level Albuquerque Center
02:29AM 35.6844 -110.7506 68° East 488 562 31,000  Level Albuquerque Center
02:30AM 35.7369 -110.5775 69° East 486 559 31,000  Level Albuquerque Center
02:31AM 35.7842 -110.4286 69° East 486 559 31,000  Level Albuquerque Center
02:32AM 35.8308 -110.2808 69° East 485 558 31,100  Climbing Albuquerque Center
02:33AM 35.8833 -110.1108 69° East 479 551 31,000 -60 Descending Albuquerque Center
02:34AM 35.9367 -109.9411 69° East 476 548 31,000  Level Denver Center
02:35AM 35.9806 -109.7956 70° East 474 545 31,000  Level Denver Center
02:36AM 36.0247 -109.6517 69° East 470 541 31,000  Level Denver Center
02:37AM 36.0753 -109.4822 70° East 469 540 31,000  Level Denver Center
02:38AM 36.1111 -109.3597 70° East 471 542 31,000  Level Albuquerque Center
02:39AM 36.1547 -109.2147 70° East 470 541 31,100  Climbing Albuquerque Center
02:40AM 36.2053 -109.0436 70° East 470 541 31,100 -60 Level Albuquerque Center
02:41AM 36.2569 -108.8722 69° East 469 540 31,000 -60 Descending Denver Center
02:42AM 36.2994 -108.7258 70° East 467 537 31,000  Level Denver Center
02:43AM 36.3411 -108.5808 70° East 466 536 31,000  Level Denver Center
02:44AM 36.3828 -108.4381 70° East 461 531 31,000  Level Denver Center
02:45AM 36.4242 -108.2947 70° East 461 531 31,000  Level Denver Center
02:46AM 36.4722 -108.1300 70° East 456 525 31,000  Level Denver Center
02:47AM 36.5114 -107.9883 71° East 454 522 31,000  Level Denver Center
02:48AM 36.5517 -107.8469 70° East 453 521 31,000  Level Denver Center
02:49AM 36.5978 -107.6811 71° East 454 522 31,000  Level Denver Center
02:50AM 36.6378 -107.5392 71° East 454 522 31,000  Level Denver Center
02:51AM 36.6769 -107.3978 71° East 453 521 31,000  Level Denver Center
02:52AM 36.7167 -107.2544 71° East 455 524 31,000  Level Denver Center
02:53AM 36.7617 -107.0878 71° East 455 524 31,000  Level Denver Center
02:54AM 36.8014 -106.9456 71° East 454 522 31,000  Level Denver Center
02:55AM 36.8408 -106.8028 71° East 454 522 31,000  Level Denver Center
02:56AM 36.8872 -106.6339 71° East 459 528 31,000  Level Denver Center
02:57AM 36.9275 -106.4872 71° East 465 535 31,000  Level Denver Center
02:58AM 36.9667 -106.3425 71° East 460 529 31,000  Level Denver Center
02:59AM 37.0053 -106.1972 72° East 459 528 31,000  Level Denver Center
03:00AM 37.0508 -106.0269 71° East 462 532 31,100 480 Climbing Denver Center
03:01AM 37.0881 -105.8828 72° East 455 524 32,000 720 Climbing Denver Center
03:02AM 37.1278 -105.7369 71° East 453 521 32,600 420 Climbing Denver Center
03:03AM 37.1650 -105.5925 72° East 455 524 32,900 180 Climbing Denver Center
03:04AM 37.2108 -105.4236 71° East 457 526 33,000  Climbing Denver Center
03:05AM 37.2483 -105.2783 72° East 456 525 33,000  Level Denver Center
03:06AM 37.2850 -105.1331 72° East 455 524 33,000  Level Denver Center
03:07AM 37.3275 -104.9625 73° East 458 527 33,000  Level Denver Center
03:08AM 37.3650 -104.8169 72° East 456 525 33,000  Level Denver Center
03:09AM 37.4022 -104.6717 72° East 457 526 33,000  Level Denver Center
03:10AM 37.4381 -104.5253 73° East 456 525 33,000  Level Denver Center
03:11AM 37.4803 -104.3542 73° East 458 527 33,000  Level Denver Center
03:12AM 37.5164 -104.2067 73° East 459 528 33,000  Level Denver Center
03:13AM 37.5533 -104.0567 73° East 463 533 33,000  Level Denver Center
03:14AM 37.5922 -103.8992 73° East 462 532 33,000  Level Denver Center
03:15AM 37.6281 -103.7519 73° East 458 527 33,000  Level Denver Center
03:16AM 37.6694 -103.5778 73° East 462 532 33,000  Level Denver Center
03:17AM 37.7056 -103.4278 73° East 467 537 33,000  Level Denver Center
03:18AM 37.7411 -103.2767 73° East 468 539 33,000  Level Denver Center
03:19AM 37.7833 -103.0997 73° East 471 542 33,000  Level Denver Center
03:20AM 37.8192 -102.9481 73° East 470 541 33,000  Level Denver Center
03:21AM 37.8536 -102.7958 74° East 470 541 33,000  Level Denver Center
03:22AM 37.8897 -102.6419 73° East 475 547 33,000  Level Denver Center
03:23AM 37.9300 -102.4611 74° East 479 551 33,000  Level Denver Center
03:24AM 37.9681 -102.3000 73° East 477 549 33,000  Level Denver Center
03:25AM 38.0031 -102.1444 74° East 477 549 33,000  Level Denver Center
03:26AM 38.0367 -101.9900 75° East 475 547 33,000  Level Denver Center
03:27AM 38.0778 -101.8097 74° East 475 547 33,000  Level Denver Center
03:28AM 38.1131 -101.6539 74° East 478 550 33,000  Level Denver Center
03:29AM 38.1469 -101.4994 74° East 475 547 33,000  Level Denver Center
03:30AM 38.1803 -101.3436 75° East 475 547 33,000  Level Denver Center
03:31AM 38.2200 -101.1633 74° East 471 542 33,000  Level Denver Center
03:32AM 38.2536 -101.0072 75° East 474 545 33,000  Level Denver Center
03:33AM 38.2875 -100.8517 74° East 474 545 33,000  Level Denver Center
03:34AM 38.3206 -100.6939 75° East 480 552 33,000  Level Denver Center
03:35AM 38.3592 -100.5128 75° East 476 548 33,000 -480 Level Denver Center
03:36AM 38.3919 -100.3558 75° East 476 548 32,100 -900 Descending Denver Center
03:37AM 38.4247 -100.1975 75° East 480 552 31,200 -600 Descending Denver Center
03:38AM 38.4633 -100.0117 75° East 484 557 31,000 -120 Descending Denver Center
03:39AM 38.4956 -99.8519 75° East 485 558 31,000  Level Denver Center
03:40AM 38.5281 -99.6917 75° East 486 559 31,000  Level Denver Center
03:41AM 38.5594 -99.5328 76° East 484 557 31,000  Level Denver Center
03:43AM 38.6044 -99.3003 76° East 483 556 31,000  Level Kansas City Center
03:43AM 38.6367 -99.1314 76° East 485 558 31,000  Level Kansas City Center
03:45AM 38.6703 -98.9636 76° East 486 559 31,000  Level Kansas City Center
03:46AM 38.7031 -98.7944 76° East 487 560 31,000  Level Kansas City Center
03:47AM 38.7356 -98.6253 76° East 487 560 31,000  Level Kansas City Center
03:48AM 38.7683 -98.4556 76° East 488 562 31,000  Level Kansas City Center
03:49AM 38.8008 -98.2856 76° East 488 562 31,000  Level Kansas City Center
03:50AM 38.8333 -98.1147 76° East 490 564 31,000  Level Kansas City Center
03:51AM 38.8661 -97.9433 76° East 492 566 31,000  Level Kansas City Center
03:52AM 38.8986 -97.7678 77° East 492 566 31,000  Level Kansas City Center
03:53AM 38.9294 -97.6017 77° East 496 571 31,000  Level Kansas City Center
03:54AM 38.9528 -97.4194 81° East 499 574 31,000  Level Kansas City Center
03:55AM 38.9778 -97.2342 80° East 501 577 31,000  Level Kansas City Center
03:56AM 39.0011 -97.0644 80° East 502 578 31,000  Level Kansas City Center
03:57AM 39.0250 -96.8947 80° East 502 578 31,000  Level Kansas City Center
03:58AM 39.0511 -96.6947 80° East 504 580 31,000  Level Kansas City Center
03:59AM 39.0761 -96.5233 79° East 506 582 31,000  Level Kansas City Center
04:00AM 39.1008 -96.3508 79° East 509 586 31,000  Level Kansas City Center
04:01AM 39.1308 -96.1494 79° East 510 587 31,000  Level Kansas City Center
04:02AM 39.1553 -95.9769 80° East 511 588 31,000  Level Kansas City Center
04:03AM 39.1806 -95.8028 79° East 513 590 31,000  Level Kansas City Center
04:04AM 39.2047 -95.6300 80° East 513 590 31,000  Level Kansas City Center
04:05AM 39.2344 -95.4164 80° East 515 593 31,000  Level Kansas City Center
04:06AM 39.2586 -95.2400 80° East 518 596 31,000  Level Kansas City Center
04:07AM 39.2828 -95.0633 80° East 517 595 31,000  Level Kansas City Center
04:08AM 39.3064 -94.8850 80° East 517 595 31,000  Level Kansas City Center
04:09AM 39.3294 -94.7117 80° East 518 596 31,000  Level Kansas City Center
04:10AM 39.3572 -94.5056 80° East 519 597 31,000  Level Kansas City Center
04:11AM 39.3803 -94.3292 80° East 519 597 31,000  Level Kansas City Center
04:12AM 39.4028 -94.1517 81° East 523 602 31,000  Level Kansas City Center
04:13AM 39.4289 -93.9444 81° East 523 602 31,000  Level Kansas City Center
04:14AM 39.4508 -93.7650 81° East 525 604 31,000  Level Kansas City Center
04:15AM 39.4728 -93.5936 81° East 526 605 31,000  Level Kansas City Center
04:16AM 39.4953 -93.4056 81° East 528 608 31,000  Level Kansas City Center
04:17AM 39.5183 -93.2214 81° East 528 608 31,000  Level Kansas City Center
04:18AM 39.5406 -93.0331 81° East 530 610 31,000  Level Kansas City Center
04:19AM 39.5606 -92.8433 82° East 536 617 31,000  Level Kansas City Center
04:20AM 39.5872 -92.6175 81° East 536 617 31,000  Level Kansas City Center
04:21AM 39.6075 -92.4317 82° East 535 616 31,000  Level Kansas City Center
04:22AM 39.6278 -92.2444 82° East 533 613 31,000  Level Kansas City Center
04:23AM 39.6486 -92.0561 82° East 533 613 31,000  Level Kansas City Center
04:24AM 39.6689 -91.8683 82° East 533 613 31,000  Level Kansas City Center
04:25AM 39.6889 -91.6783 82° East 533 613 31,000  Level Kansas City Center
04:26AM 39.7086 -91.4892 82° East 533 613 31,000  Level Kansas City Center
04:27AM 39.7275 -91.3008 83° East 533 613 31,000  Level Kansas City Center
04:28AM 39.7478 -91.1083 82° East 534 615 31,000  Level Kansas City Center
04:29AM 39.7689 -90.8964 83° East 539 620 31,000  Level Kansas City Center
04:30AM 39.7869 -90.7039 83° East 540 621 31,000  Level Kansas City Center
04:31AM 39.8058 -90.5092 83° East 540 621 31,000  Level Kansas City Center
04:32AM 39.8242 -90.3136 83° East 543 625 31,000  Level Kansas City Center
04:33AM 39.8422 -90.1189 83° East 543 625 31,000  Level Kansas City Center
04:34AM 39.8594 -89.9236 83° East 544 626 31,000  Level Kansas City Center
04:35AM 39.8775 -89.7294 83° East 544 626 31,000  Level Kansas City Center
04:36AM 39.8944 -89.5342 83° East 544 626 31,000  Level Kansas City Center
04:37AM 39.9106 -89.3367 84° East 549 632 31,000  Level Kansas City Center
04:38AM 39.9278 -89.1403 83° East 549 632 31,000  Level Kansas City Center
04:39AM 39.9433 -88.9411 84° East 549 632 31,000  Level Kansas City Center
04:40AM 39.9594 -88.7425 84° East 551 634 31,000  Level Kansas City Center
04:41AM 39.9781 -88.5031 84° East 557 641 31,000  Level Chicago Center
04:42AM 39.9936 -88.3019 84° East 559 643 31,000  Level Chicago Center
04:43AM 40.0069 -88.1339 84° East 556 640 31,000  Level Chicago Center
04:44AM 40.0206 -87.9331 85° East 557 641 31,000  Level Chicago Center
04:45AM 40.0353 -87.7336 84° East 555 639 31,000  Level Chicago Center
04:46AM 40.0500 -87.5317 84° East 559 643 31,000  Level Chicago Center
04:47AM 40.0664 -87.2919 85° East 556 640 31,000  Level Chicago Center
04:48AM 40.0794 -87.0900 85° East 558 642 31,000  Level Chicago Center
04:49AM 40.0908 -86.8897 86° East 555 639 31,000  Level Chicago Center
04:50AM 40.1039 -86.6872 85° East 558 642 31,000  Level Chicago Center
04:51AM 40.1131 -86.5236 86° East 560 644 31,000  Level Chicago Center
04:52AM 40.1253 -86.3189 85° East 561 646 31,000  Level Chicago Center
04:53AM 40.1375 -86.1150 85° East 560 644 31,000  Level Chicago Center
04:54AM 40.1492 -85.9139 86° East 554 638 31,000  Level Chicago Center
04:55AM 40.1600 -85.7103 86° East 557 641 31,000  Level Chicago Center
04:56AM 40.1700 -85.5064 86° East 559 643 31,000  Level Chicago Center
04:57AM 40.1825 -85.3031 85° East 561 646 31,000  Level Chicago Center
04:58AM 40.1919 -85.0997 86° East 562 647 31,000  Level Chicago Center
04:59AM 40.2031 -84.8969 86° East 562 647 31,000  Level Chicago Center
05:00AM 40.2114 -84.6928 87° East 563 648 31,000  Level Chicago Center
05:01AM 40.2231 -84.4472 86° East 565 650 31,000  Level Chicago Center
05:02AM 40.2261 -84.2506 89° East 566 651 31,000  Level Chicago Center
05:03AM 40.2356 -84.0444 86° East 569 655 31,000  Level Chicago Center
05:04AM 40.2425 -83.8406 87° East 566 651 31,000  Level Chicago Center
05:05AM 40.2503 -83.6342 87° East 568 654 31,000  Level Chicago Center
05:06AM 40.2589 -83.3606 88° East 566 651 31,000  Level Indianapolis Center
05:07AM 40.2653 -83.1533 88° East 566 651 31,000  Level Indianapolis Center
05:08AM 40.2717 -82.9472 88° East 566 651 31,000  Level Indianapolis Center
05:09AM 40.2778 -82.7239 88° East 566 651 31,000  Level Indianapolis Center
05:10AM 40.2839 -82.5153 88° East 566 651 31,000  Level Indianapolis Center
05:11AM 40.2836 -82.3056 90° East 569 655 31,000  Level Indianapolis Center
05:12AM 40.2825 -82.0961 90° East 569 655 31,000  Level Indianapolis Center
05:13AM 40.2811 -81.8872 90° East 569 655 31,000  Level Indianapolis Center
05:14AM 40.2800 -81.6781 90° East 570 656 31,000  Level Indianapolis Center
05:15AM 40.2781 -81.4697 91° East 570 656 31,000  Level Indianapolis Center
05:16AM 40.2767 -81.2608 90° East 570 656 31,000  Level Indianapolis Center
05:17AM 40.2744 -81.0983 91° East 571 657 31,000  Level Cleveland Center
05:18AM 40.2706 -80.8919 91° East 571 657 31,000  Level Cleveland Center
05:19AM 40.2678 -80.6872 91° East 566 651 31,000  Level Cleveland Center
05:20AM 40.2650 -80.4817 91° East 567 652 31,000  Level Cleveland Center
05:21AM 40.2617 -80.2789 91° East 567 652 31,000  Level Cleveland Center
05:22AM 40.2572 -80.0811 92° East 566 651 31,000  Level Cleveland Center
05:23AM 40.2519 -79.8803 92° East 565 650 31,000  Level Cleveland Center
05:24AM 40.2464 -79.6753 92° East 566 651 31,000  Level Cleveland Center
05:25AM 40.2417 -79.4700 92° East 566 651 31,000  Level Cleveland Center
05:26AM 40.2358 -79.2572 92° East 567 652 31,000  Level Cleveland Center
05:27AM 40.2292 -79.0528 92° East 567 652 31,000  Level Cleveland Center
05:28AM 40.2236 -78.8514 92° East 566 651 31,000  Level Cleveland Center
05:29AM 40.2169 -78.6514 92° East 561 646 31,000  Level Cleveland Center
05:30AM 40.2089 -78.4111 92° East 559 643 31,000  Level Cleveland Center
05:31AM 40.2017 -78.2125 93° East 559 643 31,000  Level Cleveland Center
05:32AM 40.1936 -78.0125 93° East 558 642 31,000  Level Cleveland Center
05:33AM 40.1875 -77.8311 92° East 560 644 31,000 -300 Level Cleveland Center
05:34AM 40.1772 -77.6289 94° East 558 642 30,500 -1,800 Descending Cleveland Center
05:35AM 40.1683 -77.4150 93° East 582 670 27,400 -3,000 Descending Cleveland Center
05:36AM 40.1581 -77.2011 94° East 586 674 24,500 -2,640 Descending Cleveland Center
05:37AM 40.1483 -76.9956 93° East 571 657 22,100 -2,580 Descending Cleveland Center
05:38AM 40.1403 -76.8033 93° East 533 613 19,300 -2,700 Descending Cleveland Center
05:39AM 40.1303 -76.6119 94° East 530 610 16,700 -2,280 Descending Cleveland Center
05:40AM 40.1197 -76.4328 94° East 506 582 14,800 -2,280 Descending Cleveland Center
05:41AM 40.1167 -76.2667 91° East 460 529 12,400 -2,220 Descending Philadelphia TRACON
05:42AM 40.1000 -76.1000 97° East 427 491 10,700 -1,080 Descending Philadelphia TRACON
05:43AM 40.1000 -75.9667 90° East 367 422 10,300 -960 Descending Philadelphia TRACON
05:44AM 40.0833 -75.8500 101° East 338 389 8,900 -1,620 Descending Philadelphia TRACON
05:45AM 40.0833 -75.7333 90° East 333 383 7,300 -1,380 Descending Philadelphia TRACON
05:46AM 40.0833 -75.6167 90° East 310 357 6,200 -1,260 Descending Philadelphia TRACON
05:47AM 40.0833 -75.5000 90° East 306 352 4,800 -1,140 Descending Philadelphia TRACON
05:48AM 40.0833 -75.4000 90° East 275 316 4,000 -600 Descending Philadelphia TRACON
05:49AM 40.0667 -75.3000 102° East 287 330 3,700 -540 Descending Philadelphia TRACON
05:50AM 40.0500 -75.2167 105° East 255 293 3,000 -360 Descending Philadelphia TRACON
05:51AM 40.0167 -75.1333 118° Southeast 218 251 3,000 -480 Level Philadelphia TRACON
05:52AM 39.9833 -75.0833 131° Southeast 206 237 2,100 -480 Descending Philadelphia TRACON
05:53AM 39.9167 -75.0667 169° South 192 221 2,100 -120 Level Philadelphia TRACON
05:54AM 39.9000 -75.1000 237° Southwest 155 178 1,900 -540 Descending Philadelphia TRACON
05:55AM 39.8833 -75.1667 252° West 136 157 1,100 -780 Descending Philadelphia TRACON
05:56AM 39.8833 -75.2000 270° West 131 151 300 -840 Descending Philadelphia TRACON